Time;durP1;ratioP1;P1;durP2;ratioP2;P2;SDS_P1;SDS_P2;PMS_P1;PMS_P2;Temp;Humidity;BMP_temperature;BMP_pressure;BME280_temperature;BME280_humidity;BME280_pressure;Samples;Min_cycle;Max_cycle;Signal;HPM_P1;HPM_P2
2021/07/14 00:02:18;;;;;;;3.93;1.80;;;25.20;59.10;;;;;;6171344;23;20403;-85
2021/07/14 00:04:45;;;;;;;2.03;1.43;;;25.10;59.00;;;;;;6171498;23;20383;-85
2021/07/14 00:07:15;;;;;;;2.10;1.43;;;25.10;59.00;;;;;;6173049;23;20376;-85
2021/07/14 00:10:09;;;;;;;2.70;1.77;;;25.10;59.00;;;;;;6172798;23;20897;-85
2021/07/14 00:22:13;;;;;;;1.60;1.30;;;25.10;59.10;;;;;;6139352;23;20424;-85
2021/07/14 00:24:40;;;;;;;1.90;1.63;;;25.10;59.10;;;;;;6138090;23;20476;-85
2021/07/14 00:27:08;;;;;;;2.80;2.20;;;25.10;59.10;;;;;;6113728;23;20401;-86
2021/07/14 00:29:36;;;;;;;3.47;1.80;;;25.10;59.00;;;;;;6113778;23;20427;-85
2021/07/14 00:32:09;;;;;;;3.60;1.47;;;25.10;59.00;;;;;;6136981;23;20401;-86
2021/07/14 00:34:40;;;;;;;1.50;1.20;;;25.10;59.00;;;;;;6136679;23;20373;-86
2021/07/14 00:37:06;;;;;;;2.30;1.43;;;25.10;59.00;;;;;;6113056;23;20403;-85
2021/07/14 00:39:36;;;;;;;1.60;1.20;;;25.10;59.00;;;;;;6111268;23;20486;-85
2021/07/14 00:42:09;;;;;;;1.77;1.57;;;25.10;59.00;;;;;;6135785;23;20389;-86
2021/07/14 00:44:47;;;;;;;1.77;1.33;;;25.10;59.00;;;;;;6111566;23;20421;-86
2021/07/14 00:47:22;;;;;;;2.10;1.53;;;25.10;59.50;;;;;;6111236;23;20421;-86
2021/07/14 00:49:51;;;;;;;3.73;1.40;;;25.10;59.00;;;;;;6110664;23;20412;-86
2021/07/14 00:52:21;;;;;;;1.53;1.30;;;25.10;59.00;;;;;;6143002;23;20420;-86
2021/07/14 00:54:48;;;;;;;1.30;1.20;;;25.10;59.00;;;;;;6171676;23;20403;-86
2021/07/14 00:57:28;;;;;;;2.03;1.77;;;25.10;59.00;;;;;;6171062;23;20383;-85
2021/07/14 00:59:58;;;;;;;1.50;1.20;;;25.20;59.00;;;;;;6171526;23;20916;-85
2021/07/14 01:02:28;;;;;;;1.50;1.40;;;25.10;59.00;;;;;;6170951;23;20383;-85
2021/07/14 01:05:14;;;;;;;1.30;1.10;;;25.10;59.00;;;;;;6171131;23;20418;-85
2021/07/14 01:07:56;;;;;;;1.60;1.43;;;25.20;59.00;;;;;;6171427;23;20387;-85
2021/07/14 01:10:45;;;;;;;2.47;1.60;;;25.20;59.00;;;;;;6170391;23;20478;-86
2021/07/14 01:13:26;;;;;;;2.80;1.60;;;25.20;59.00;;;;;;6197519;23;20355;-85
2021/07/14 01:19:06;;;;;;;1.67;1.33;;;25.10;59.00;;;;;;6192570;23;20387;-86
2021/07/14 01:21:46;;;;;;;2.80;1.70;;;25.10;59.00;;;;;;6171442;23;20366;-85
2021/07/14 01:24:44;;;;;;;2.07;1.67;;;25.10;59.00;;;;;;6171107;23;20451;-85
2021/07/14 01:27:18;;;;;;;2.03;1.40;;;25.10;59.00;;;;;;6170372;23;20928;-85
2021/07/14 01:30:14;;;;;;;1.50;1.40;;;25.10;59.00;;;;;;6170606;23;20445;-85
2021/07/14 01:32:41;;;;;;;1.60;1.50;;;25.10;59.00;;;;;;6170922;23;20856;-85
2021/07/14 01:35:16;;;;;;;2.00;1.30;;;25.10;59.00;;;;;;6171103;23;20387;-85
2021/07/14 01:37:53;;;;;;;1.70;1.37;;;25.10;59.00;;;;;;6171521;23;20375;-85
2021/07/14 01:40:22;;;;;;;1.50;1.40;;;25.10;59.00;;;;;;6170469;23;20383;-85
2021/07/14 01:42:57;;;;;;;2.40;1.10;;;25.10;59.00;;;;;;6169945;23;20849;-86
2021/07/14 01:45:36;;;;;;;2.17;1.30;;;25.10;58.90;;;;;;6170397;23;20383;-86
2021/07/14 01:48:23;;;;;;;1.73;1.50;;;25.10;58.90;;;;;;6170009;23;20387;-85
2021/07/14 01:50:50;;;;;;;1.70;1.40;;;25.10;58.90;;;;;;6171254;23;20376;-85
2021/07/14 01:53:20;;;;;;;1.83;1.27;;;25.10;58.90;;;;;;6170166;23;20776;-85
2021/07/14 01:55:55;;;;;;;2.07;1.40;;;25.10;58.90;;;;;;6170634;23;20371;-85
2021/07/14 01:58:22;;;;;;;2.00;1.60;;;25.10;58.90;;;;;;6170791;23;20424;-85
2021/07/14 02:00:55;;;;;;;1.60;1.30;;;25.10;58.90;;;;;;6170155;23;20454;-85
2021/07/14 02:06:01;;;;;;;2.23;1.47;;;25.10;58.80;;;;;;6206579;23;20351;-85
2021/07/14 02:09:01;;;;;;;5.60;1.43;;;25.10;58.80;;;;;;6197226;23;20410;-86
2021/07/14 02:11:29;;;;;;;1.40;1.30;;;25.10;58.80;;;;;;6195084;23;20401;-85
2021/07/14 02:13:56;;;;;;;2.07;1.30;;;25.10;58.60;;;;;;6170723;23;20428;-86
2021/07/14 02:16:24;;;;;;;5.10;1.40;;;25.10;58.80;;;;;;6170865;23;20384;-85
2021/07/14 02:19:02;;;;;;;1.30;1.20;;;25.10;58.70;;;;;;6170532;23;20394;-85
2021/07/14 02:21:30;;;;;;;1.80;1.63;;;25.10;58.70;;;;;;6171100;23;20477;-85
2021/07/14 02:23:56;;;;;;;1.93;1.63;;;25.10;58.70;;;;;;6171487;23;20402;-85
2021/07/14 02:26:28;;;;;;;2.43;1.70;;;25.10;58.70;;;;;;6171007;23;20387;-85
2021/07/14 02:28:57;;;;;;;2.50;1.90;;;25.10;58.70;;;;;;6172056;23;20905;-85
2021/07/14 02:31:26;;;;;;;1.50;1.40;;;25.10;58.70;;;;;;6172135;23;20371;-85
2021/07/14 02:33:52;;;;;;;2.27;1.13;;;25.10;58.60;;;;;;6147838;22;20401;-85
2021/07/14 02:36:35;;;;;;;1.83;1.70;;;25.10;58.60;;;;;;6172191;23;20378;-85
2021/07/14 02:39:06;;;;;;;1.77;1.30;;;25.10;59.10;;;;;;6172313;23;20417;-85
2021/07/14 02:41:45;;;;;;;1.50;1.30;;;25.10;58.60;;;;;;6147402;23;20411;-85
2021/07/14 02:44:14;;;;;;;4.20;1.43;;;25.10;58.60;;;;;;6172547;23;20903;-86
2021/07/14 02:46:45;;;;;;;1.63;1.53;;;25.00;58.50;;;;;;6171401;23;20394;-85
2021/07/14 02:49:17;;;;;;;1.60;1.37;;;25.00;58.50;;;;;;6171669;23;20419;-86
2021/07/14 02:51:48;;;;;;;3.67;1.30;;;25.00;58.50;;;;;;6198325;23;20356;-85
2021/07/14 02:54:31;;;;;;;1.93;1.47;;;25.00;58.50;;;;;;6172255;23;20772;-85
2021/07/14 02:57:02;;;;;;;1.60;1.37;;;25.00;58.50;;;;;;6198612;23;20386;-85
2021/07/14 02:59:57;;;;;;;2.10;1.53;;;25.00;58.50;;;;;;6172208;23;20873;-86
2021/07/14 03:02:25;;;;;;;1.50;1.00;;;25.10;58.50;;;;;;6152890;23;20383;-85
2021/07/14 03:04:57;;;;;;;1.40;1.30;;;25.00;58.50;;;;;;6171668;23;20387;-85
2021/07/14 03:07:27;;;;;;;2.67;1.60;;;25.00;58.50;;;;;;6172785;23;20381;-85
2021/07/14 03:09:57;;;;;;;1.40;1.30;;;25.00;58.50;;;;;;6172195;23;20423;-85
2021/07/14 03:13:08;;;;;;;2.20;1.70;;;25.00;58.50;;;;;;6197924;23;20352;-85
2021/07/14 03:18:05;;;;;;;1.50;1.40;;;25.00;58.50;;;;;;6198083;23;20373;-85
2021/07/14 03:20:34;;;;;;;2.73;1.57;;;25.00;58.50;;;;;;6171738;23;20376;-85
2021/07/14 03:23:02;;;;;;;1.70;1.40;;;25.00;58.50;;;;;;6171006;23;20383;-86
2021/07/14 03:25:29;;;;;;;1.87;1.50;;;25.00;58.50;;;;;;6171366;23;20379;-85
2021/07/14 03:28:07;;;;;;;2.70;1.60;;;25.00;58.50;;;;;;6197495;23;20371;-85
2021/07/14 03:30:39;;;;;;;2.43;1.50;;;25.00;58.50;;;;;;6197898;23;20356;-86
2021/07/14 03:33:14;;;;;;;1.60;1.50;;;25.00;58.50;;;;;;6170556;23;20387;-85
2021/07/14 03:35:48;;;;;;;1.60;1.30;;;25.00;58.50;;;;;;6171217;23;20438;-86
2021/07/14 03:38:26;;;;;;;;;;;;;;;;;;;;;
2021/07/14 03:40:56;;;;;;;1.97;1.50;;;25.00;58.50;;;;;;6174079;23;20398;-85
2021/07/14 03:43:30;;;;;;;1.77;1.37;;;25.00;58.50;;;;;;6171654;23;20376;-85
2021/07/14 03:46:00;;;;;;;1.90;1.23;;;25.10;58.50;;;;;;6171663;23;20383;-85
2021/07/14 03:48:32;;;;;;;3.10;1.37;;;25.00;58.50;;;;;;6170883;23;20470;-85
2021/07/14 03:51:00;;;;;;;1.43;1.27;;;25.00;58.50;;;;;;6170922;23;20376;-85
2021/07/14 03:53:28;;;;;;;2.13;1.77;;;25.00;58.50;;;;;;6171640;23;20395;-84
2021/07/14 03:55:55;;;;;;;1.70;1.60;;;25.00;58.50;;;;;;6171155;23;20384;-84
2021/07/14 03:58:22;;;;;;;1.53;1.43;;;25.00;58.50;;;;;;6171178;23;20383;-84
2021/07/14 04:00:49;;;;;;;1.60;1.40;;;25.00;58.50;;;;;;6172231;23;20390;-84
2021/07/14 04:03:28;;;;;;;1.33;1.23;;;25.00;58.50;;;;;;6171991;23;20402;-84
2021/07/14 04:06:07;;;;;;;1.70;1.53;;;25.00;58.50;;;;;;6171596;23;20370;-84
2021/07/14 04:08:44;;;;;;;1.67;1.57;;;25.10;58.50;;;;;;6171084;23;20438;-84
2021/07/14 04:11:13;;;;;;;1.90;1.73;;;25.00;58.50;;;;;;6170791;23;20382;-84
2021/07/14 04:13:42;;;;;;;1.90;1.40;;;25.00;58.50;;;;;;6171531;23;20409;-84
2021/07/14 04:16:09;;;;;;;1.83;1.27;;;25.00;58.50;;;;;;6171936;23;20405;-84
2021/07/14 04:18:37;;;;;;;1.27;1.17;;;25.00;58.50;;;;;;6170879;23;20384;-83
2021/07/14 04:21:05;;;;;;;2.30;1.37;;;25.00;58.50;;;;;;6171819;23;20383;-84
2021/07/14 04:23:34;;;;;;;1.77;1.40;;;25.00;58.50;;;;;;6170928;23;20380;-84
2021/07/14 04:26:20;;;;;;;1.40;1.20;;;25.00;58.20;;;;;;6176316;23;20367;-83
2021/07/14 04:58:44;;;;;;;2.70;1.50;;;25.00;58.60;;;;;;6262579;23;20364;-84
2021/07/14 05:01:24;;;;;;;1.60;1.43;;;25.00;58.60;;;;;;6235510;23;20405;-84
2021/07/14 05:03:54;;;;;;;1.43;1.33;;;25.00;58.60;;;;;;6235228;23;20380;-85
2021/07/14 05:06:25;;;;;;;1.60;1.40;;;25.00;58.60;;;;;;6234907;23;20376;-84
2021/07/14 05:08:59;;;;;;;1.80;1.70;;;25.00;58.60;;;;;;6235544;23;20412;-84
2021/07/14 05:11:26;;;;;;;2.67;1.60;;;25.00;58.80;;;;;;6236573;23;20377;-84
2021/07/14 05:13:56;;;;;;;1.80;1.37;;;25.00;58.50;;;;;;6236880;23;20519;-83
2021/07/14 05:16:29;;;;;;;2.70;1.37;;;25.00;58.50;;;;;;6262779;23;20358;-84
2021/07/14 05:19:01;;;;;;;3.00;1.77;;;25.00;58.50;;;;;;6236167;23;20402;-85
2021/07/14 05:21:30;;;;;;;1.77;1.67;;;25.00;58.50;;;;;;6235794;23;20392;-85
2021/07/14 05:24:06;;;;;;;1.93;1.60;;;25.00;58.50;;;;;;6235003;23;20868;-84
2021/07/14 05:27:08;;;;;;;3.90;1.50;;;25.00;58.40;;;;;;6234995;23;20415;-85
2021/07/14 05:29:40;;;;;;;2.07;1.87;;;25.00;58.40;;;;;;6236877;23;20401;-85
2021/07/14 05:32:09;;;;;;;1.50;1.40;;;25.00;58.50;;;;;;6236096;23;20377;-85
2021/07/14 05:34:35;;;;;;;2.00;1.30;;;25.00;58.50;;;;;;6235733;23;20404;-85
2021/07/14 05:37:01;;;;;;;1.97;1.77;;;25.00;58.50;;;;;;6236393;23;20377;-85
2021/07/14 05:43:12;;;;;;;4.70;2.17;;;25.00;58.40;;;;;;6263072;23;20376;-84
2021/07/14 05:46:09;;;;;;;1.63;1.53;;;25.00;58.50;;;;;;6262739;23;20357;-85
2021/07/14 05:49:02;;;;;;;;;;;;;;;;;;;;;
2021/07/14 05:51:47;;;;;;;2.17;1.80;;;25.00;58.60;;;;;;6263412;23;20408;-85
2021/07/14 05:55:01;;;;;;;2.13;1.40;;;25.00;58.60;;;;;;6236092;23;20373;-85
2021/07/14 05:57:53;;;;;;;;;;;;;;;;;;;;;
2021/07/14 06:14:19;;;;;;;3.90;2.10;;;24.90;58.60;;;;;;6108800;23;20372;-83
2021/07/14 06:17:02;;;;;;;3.57;1.70;;;24.90;58.70;;;;;;6118782;23;20461;-83
2021/07/14 06:19:29;;;;;;;2.83;2.00;;;24.80;58.60;;;;;;6118188;23;20380;-83
2021/07/14 06:21:59;;;;;;;2.97;1.90;;;24.90;58.70;;;;;;6094211;23;20385;-83
2021/07/14 06:24:38;;;;;;;1.93;1.73;;;24.90;58.70;;;;;;6118804;23;20384;-84
2021/07/14 06:27:07;;;;;;;3.67;2.30;;;24.90;58.70;;;;;;6118326;23;20419;-84
2021/07/14 06:29:33;;;;;;;3.17;1.77;;;24.90;58.80;;;;;;6114267;23;20435;-85
2021/07/14 06:32:13;;;;;;;2.10;1.90;;;24.90;58.60;;;;;;6114207;23;20377;-87
2021/07/14 06:34:45;;;;;;;3.30;2.17;;;24.90;58.60;;;;;;6199996;23;20392;-87
2021/07/14 07:09:15;;;;;;;2.87;1.90;;;24.80;59.00;;;;;;5728422;24;20473;-84
2021/07/14 07:11:53;;;;;;;7.70;2.10;;;24.80;59.60;;;;;;5727517;24;20409;-84
2021/07/14 07:14:24;;;;;;;3.80;1.90;;;24.80;59.00;;;;;;5729101;25;20470;-83
2021/07/14 07:17:14;;;;;;;1.83;1.60;;;24.90;59.10;;;;;;5741002;24;20400;-84
2021/07/14 07:20:14;;;;;;;;;;;;;;;;;;;;;
2021/07/14 07:23:12;;;;;;;;;;;;;;;;;;;;;
2021/07/14 07:26:04;;;;;;;3.00;2.10;;;24.90;59.00;;;;;;5860441;24;20421;-84
2021/07/14 07:28:47;;;;;;;2.50;1.60;;;24.90;58.90;;;;;;5859952;24;20434;-84
2021/07/14 07:32:14;;;;;;;2.10;1.90;;;24.90;58.90;;;;;;5885599;24;20384;-83
2021/07/14 07:35:20;;;;;;;2.63;1.70;;;24.90;58.90;;;;;;5973513;23;20380;-84
2021/07/14 07:38:22;;;;;;;3.60;2.43;;;24.90;58.90;;;;;;6066653;23;20383;-84
2021/07/14 07:44:52;;;;;;;2.67;1.60;;;24.90;58.90;;;;;;6115103;23;20442;-84
2021/07/14 07:48:06;;;;;;;1.70;1.60;;;24.90;59.00;;;;;;6115068;23;20448;-85
2021/07/14 07:58:31;;;;;;;2.37;2.17;;;24.90;58.90;;;;;;6092219;23;20350;-84
2021/07/14 08:00:58;;;;;;;;;;;;;;;;;;;;;
2021/07/14 08:03:53;;;;;;;2.10;1.90;;;24.80;58.90;;;;;;6149306;23;20385;-84
2021/07/14 08:06:47;;;;;;;2.43;1.67;;;24.80;58.80;;;;;;6118405;23;20480;-84
2021/07/14 08:09:19;;;;;;;1.80;1.67;;;24.80;58.90;;;;;;6122843;23;20428;-84
2021/07/14 08:12:07;;;;;;;2.30;1.67;;;24.80;58.80;;;;;;6111355;23;20389;-84
2021/07/14 08:14:39;;;;;;;2.20;1.93;;;24.90;58.90;;;;;;6125142;23;20411;-84
2021/07/14 08:17:08;;;;;;;3.50;1.53;;;24.80;58.80;;;;;;6084255;23;20386;-84
2021/07/14 08:19:56;;;;;;;2.60;1.67;;;24.90;58.90;;;;;;6087910;23;20377;-82
2021/07/14 08:22:22;;;;;;;4.43;1.77;;;24.90;58.90;;;;;;6111339;23;20400;-82
2021/07/14 08:25:14;;;;;;;2.13;1.73;;;24.90;58.90;;;;;;6111603;23;20378;-82
2021/07/14 08:27:51;;;;;;;;;;;;;;;;;;;;;
2021/07/14 08:30:31;;;;;;;;;;;;;;;;;;;;;
2021/07/14 08:36:32;;;;;;;1.83;1.70;;;24.90;58.70;;;;;;6086877;23;20389;-83
2021/07/14 08:42:09;;;;;;;2.27;1.93;;;24.80;58.70;;;;;;6083537;23;20395;-84
2021/07/14 08:44:56;;;;;;;2.70;2.50;;;24.80;58.70;;;;;;6081020;23;20398;-84
2021/07/14 08:48:20;;;;;;;3.10;1.73;;;24.90;58.70;;;;;;6081233;23;20454;-85
2021/07/14 08:51:25;;;;;;;3.33;1.70;;;24.90;58.70;;;;;;6052730;23;20418;-85
2021/07/14 09:12:13;;;;;;;2.13;1.93;;;24.80;58.80;;;;;;6024312;23;20389;-90
2021/07/14 14:13:12;;;;;;;;;;;;;;;;;;;;;
2021/07/14 14:15:48;;;;;;;2.30;2.10;;;24.90;58.70;;;;;;5834596;24;20395;-87
2021/07/14 14:18:34;;;;;;;4.23;2.00;;;24.90;58.60;;;;;;5938278;24;20400;-87
2021/07/14 14:21:13;;;;;;;2.10;1.90;;;24.90;58.50;;;;;;5974563;24;20404;-87
2021/07/14 14:24:22;;;;;;;1.90;1.70;;;24.90;58.60;;;;;;5919350;24;20398;-86
2021/07/14 14:27:02;;;;;;;2.00;1.90;;;24.90;58.50;;;;;;5898933;24;20421;-86
2021/07/14 14:30:13;;;;;;;;;;;;;;;;;;;;;
2021/07/14 14:36:31;;;;;;;1.67;1.57;;;25.00;58.50;;;;;;6008215;23;20387;-85
2021/07/14 14:39:47;;;;;;;1.83;1.70;;;24.90;58.40;;;;;;6074290;23;20386;-86
2021/07/14 14:42:38;;;;;;;2.47;1.80;;;24.90;58.40;;;;;;6124275;23;20416;-86
